Time;durP1;ratioP1;P1;durP2;ratioP2;P2;SDS_P1;SDS_P2;PMS_P1;PMS_P2;Temp;Humidity;BMP_temperature;BMP_pressure;BME280_temperature;BME280_humidity;BME280_pressure;Samples;Min_cycle;Max_cycle;Signal;HPM_P1;HPM_P2
2021/05/19 00:02:15;;;;;;;2.80;2.33;;;;;;;15.28;87.50;98905.41;1739402;80;21073;-47
2021/05/19 00:04:41;;;;;;;3.22;2.55;;;;;;;15.28;87.46;98900.03;1733268;80;21009;-49
2021/05/19 00:07:08;;;;;;;3.98;2.72;;;;;;;15.26;87.39;98903.37;1737976;80;21056;-48
2021/05/19 00:09:35;;;;;;;4.10;2.58;;;;;;;15.23;87.36;98904.20;1732000;80;21046;-48
2021/05/19 00:12:01;;;;;;;4.92;3.12;;;;;;;15.21;87.41;98903.51;1731768;80;21005;-45
2021/05/19 00:14:28;;;;;;;3.42;3.10;;;;;;;15.20;87.38;98901.84;1732279;81;21025;-44
2021/05/19 00:16:56;;;;;;;3.42;3.12;;;;;;;15.15;87.31;98902.30;1730196;80;21084;-45
2021/05/19 00:19:22;;;;;;;4.08;3.67;;;;;;;15.09;87.33;98905.13;1741575;80;21025;-45
2021/05/19 00:21:52;;;;;;;4.40;3.40;;;;;;;15.03;87.46;98896.33;1731149;80;21025;-47
2021/05/19 00:24:19;;;;;;;3.65;3.35;;;;;;;15.01;87.59;98893.46;1731762;80;21339;-51
2021/05/19 00:26:45;;;;;;;6.17;4.40;;;;;;;14.96;87.76;98896.61;1741394;80;20989;-47
2021/05/19 00:29:14;;;;;;;4.78;3.70;;;;;;;14.98;87.97;98897.30;1739854;80;21009;-51
2021/05/19 00:31:41;;;;;;;4.67;3.27;;;;;;;14.98;88.12;98891.09;1739303;80;21037;-46
2021/05/19 00:34:10;;;;;;;3.80;3.37;;;;;;;14.96;88.17;98891.75;1749846;80;21037;-50
2021/05/19 00:36:38;;;;;;;3.80;3.10;;;;;;;14.96;88.26;98889.90;1742807;80;21817;-47
2021/05/19 00:39:06;;;;;;;3.58;3.20;;;;;;;15.00;88.38;98895.31;1747285;80;21061;-48
2021/05/19 00:41:34;;;;;;;3.70;3.40;;;;;;;15.02;88.34;98900.50;1749854;80;20993;-48
2021/05/19 00:44:09;;;;;;;4.67;3.45;;;;;;;15.02;88.34;98893.31;1744997;80;21109;-50
2021/05/19 00:46:38;;;;;;;3.80;3.10;;;;;;;15.05;88.33;98890.82;1750458;80;21476;-46
2021/05/19 00:49:04;;;;;;;5.80;3.83;;;;;;;15.08;88.27;98893.19;1717741;82;21013;-46
2021/05/19 00:51:32;;;;;;;8.03;3.25;;;;;;;15.10;88.19;98894.71;1745446;80;21049;-47
2021/05/19 00:53:58;;;;;;;3.15;2.72;;;;;;;15.12;88.08;98894.06;1744689;80;21528;-48
2021/05/19 00:56:25;;;;;;;3.00;2.50;;;;;;;15.13;87.95;98890.88;1727354;80;20994;-48
2021/05/19 00:58:56;;;;;;;3.33;2.72;;;;;;;15.14;87.82;98888.05;1772648;80;21025;-47
2021/05/19 01:01:23;;;;;;;4.17;3.17;;;;;;;15.15;87.71;98879.48;1762485;79;20998;-48
2021/05/19 01:03:58;;;;;;;3.90;3.50;;;;;;;15.16;87.59;98883.84;1761929;80;21017;-47
2021/05/19 01:06:35;;;;;;;2.90;2.62;;;;;;;15.18;87.50;98888.56;1763941;79;21036;-42
2021/05/19 01:11:40;;;;;;;3.85;3.10;;;;;;;15.18;87.26;98881.01;1767117;80;21528;-43
2021/05/19 01:14:08;;;;;;;3.67;2.77;;;;;;;15.15;87.10;98882.17;1772595;80;21006;-49
2021/05/19 01:16:35;;;;;;;4.20;2.80;;;;;;;15.11;87.07;98891.02;1737246;81;21002;-45
2021/05/19 01:19:03;;;;;;;4.60;3.00;;;;;;;15.09;87.12;98890.83;1764423;80;20979;-45
2021/05/19 01:21:30;;;;;;;3.70;3.00;;;;;;;15.10;87.19;98892.53;1769230;80;20966;-48
2021/05/19 01:23:58;;;;;;;4.15;3.22;;;;;;;15.09;87.15;98896.20;1726152;81;21050;-42
2021/05/19 01:26:25;;;;;;;3.05;2.72;;;;;;;15.09;87.18;98900.23;1769433;80;20962;-45
2021/05/19 01:28:51;;;;;;;4.95;2.92;;;;;;;15.08;87.11;98896.70;1767512;80;21237;-50
2021/05/19 01:31:19;;;;;;;3.45;3.15;;;;;;;15.09;87.05;98898.41;1763173;80;20983;-50
2021/05/19 01:33:48;;;;;;;4.28;3.30;;;;;;;15.09;86.98;98897.06;1702082;82;21046;-50
2021/05/19 01:36:15;;;;;;;4.60;3.25;;;;;;;15.10;86.97;98900.08;1765163;80;21006;-43
2021/05/19 01:38:43;;;;;;;5.62;3.50;;;;;;;15.10;86.97;98902.77;1767089;80;20998;-45
2021/05/19 01:41:10;;;;;;;4.45;3.87;;;;;;;15.09;87.01;98896.20;1765575;80;21018;-45
2021/05/19 01:43:38;;;;;;;5.42;3.85;;;;;;;15.06;87.09;98904.06;1762667;80;21077;-47
2021/05/19 01:46:07;;;;;;;4.83;3.52;;;;;;;15.03;87.13;98899.52;1764259;79;21128;-45
2021/05/19 01:48:35;;;;;;;5.12;4.42;;;;;;;14.96;87.23;98903.83;1768369;80;20997;-47
2021/05/19 01:51:03;;;;;;;5.67;3.87;;;;;;;14.89;87.39;98897.75;1767290;79;20982;-48
2021/05/19 01:53:32;;;;;;;6.37;4.33;;;;;;;14.86;87.60;98895.35;1767384;80;21037;-49
2021/05/19 01:55:59;;;;;;;5.20;4.45;;;;;;;14.81;87.84;98893.63;1765675;79;21015;-50
2021/05/19 01:58:28;;;;;;;6.33;5.50;;;;;;;14.82;88.17;98902.55;1768689;80;20974;-48
2021/05/19 02:00:56;;;;;;;4.40;4.00;;;;;;;14.87;88.40;98898.40;1770214;79;21070;-47
2021/05/19 02:03:24;;;;;;;5.28;4.78;;;;;;;14.89;88.63;98898.22;1744803;80;21033;-47
2021/05/19 02:05:53;;;;;;;6.20;4.92;;;;;;;14.92;88.81;98910.02;1757007;80;21014;-43
2021/05/19 02:08:20;;;;;;;5.50;4.92;;;;;;;14.96;88.92;98911.37;1744060;80;21061;-42
2021/05/19 02:10:48;;;;;;;4.75;4.35;;;;;;;15.03;88.99;98908.92;1771586;79;21018;-45
2021/05/19 02:13:16;;;;;;;7.72;5.22;;;;;;;15.07;89.06;98913.83;1701731;82;21034;-56
2021/05/19 02:15:45;;;;;;;4.50;4.10;;;;;;;15.12;89.17;98914.20;1719529;82;21046;-56
2021/05/19 02:18:12;;;;;;;5.22;4.72;;;;;;;15.16;89.06;98920.08;1740961;79;21018;-47
2021/05/19 02:20:39;;;;;;;5.22;4.05;;;;;;;15.20;88.96;98916.60;1765365;79;21017;-46
2021/05/19 02:23:06;;;;;;;5.40;4.30;;;;;;;15.21;88.87;98922.30;1761447;80;21045;-45
2021/05/19 02:25:35;;;;;;;5.47;4.97;;;;;;;15.22;88.79;98923.97;1766365;79;21109;-47
2021/05/19 02:28:03;;;;;;;5.42;4.92;;;;;;;15.23;88.77;98927.86;1765440;79;20982;-47
2021/05/19 02:30:35;;;;;;;6.78;5.40;;;;;;;15.24;88.75;98930.88;1765298;79;21049;-48
2021/05/19 02:33:08;;;;;;;8.98;6.42;;;;;;;15.27;88.77;98931.06;1701603;83;21018;-46
2021/05/19 02:35:36;;;;;;;6.97;6.37;;;;;;;15.28;88.78;98934.94;1703330;80;21025;-47
2021/05/19 02:38:03;;;;;;;8.70;6.55;;;;;;;15.30;88.78;98926.74;1766758;80;21568;-46
2021/05/19 02:40:31;;;;;;;7.70;6.87;;;;;;;15.31;88.80;98931.94;1767953;79;21014;-48
2021/05/19 02:42:58;;;;;;;9.13;8.28;;;;;;;15.33;88.80;98935.31;1767866;80;21056;-44
2021/05/19 02:45:28;;;;;;;10.23;9.13;;;;;;;15.34;88.80;98932.95;1767894;79;21029;-46
2021/05/19 02:47:55;;;;;;;9.18;8.08;;;;;;;15.36;88.80;98939.02;1767064;79;21321;-50
2021/05/19 02:50:22;;;;;;;9.15;8.25;;;;;;;15.36;88.81;98933.65;1763844;80;21018;-45
2021/05/19 02:52:49;;;;;;;9.40;8.40;;;;;;;15.38;88.81;98936.70;1703623;82;21478;-42
2021/05/19 02:55:17;;;;;;;11.57;8.93;;;;;;;15.38;88.80;98933.50;1765696;79;21888;-45
2021/05/19 02:57:44;;;;;;;9.28;8.13;;;;;;;15.40;88.81;98934.19;1764175;80;21061;-44
2021/05/19 03:00:12;;;;;;;9.00;8.20;;;;;;;15.42;88.80;98938.05;1763739;79;21029;-47
2021/05/19 03:02:39;;;;;;;9.48;8.58;;;;;;;15.40;88.79;98928.83;1764426;80;21010;-44
2021/05/19 03:05:07;;;;;;;11.28;9.73;;;;;;;15.43;88.77;98929.84;1702994;82;21062;-51
2021/05/19 03:07:34;;;;;;;10.28;9.15;;;;;;;15.44;88.76;98923.97;1766445;80;21038;-48
2021/05/19 03:10:01;;;;;;;9.33;8.33;;;;;;;15.43;88.71;98923.63;1768963;79;21576;-47
2021/05/19 03:12:28;;;;;;;10.03;8.88;;;;;;;15.44;88.74;98927.48;1770760;80;21011;-48
2021/05/19 03:14:56;;;;;;;9.93;8.95;;;;;;;15.43;88.68;98932.53;1763718;79;21006;-45
2021/05/19 03:17:23;;;;;;;9.05;8.15;;;;;;;15.44;88.72;98933.37;1763856;80;21081;-46
2021/05/19 03:19:50;;;;;;;10.18;9.15;;;;;;;15.44;88.81;98938.73;1767948;79;21010;-44
2021/05/19 03:22:18;;;;;;;9.80;8.98;;;;;;;15.45;88.85;98940.44;1767110;80;20990;-44
2021/05/19 03:24:44;;;;;;;10.35;8.78;;;;;;;15.46;88.91;98940.77;1763271;79;20982;-47
2021/05/19 03:27:13;;;;;;;12.00;9.20;;;;;;;15.48;88.96;98947.67;1754603;79;20996;-45
2021/05/19 03:29:39;;;;;;;8.93;8.03;;;;;;;15.50;88.98;98948.36;1762011;80;21017;-44
2021/05/19 03:32:06;;;;;;;10.98;9.43;;;;;;;15.52;89.01;98952.21;1715276;82;21525;-45
2021/05/19 03:34:34;;;;;;;12.88;9.75;;;;;;;15.54;88.98;98953.73;1754983;79;21021;-49
2021/05/19 03:37:00;;;;;;;10.50;8.70;;;;;;;15.56;88.97;98957.12;1710199;83;21061;-53
2021/05/19 03:39:27;;;;;;;10.08;9.03;;;;;;;15.58;88.90;98956.97;1768020;80;20990;-51
2021/05/19 03:41:55;;;;;;;10.55;9.55;;;;;;;15.58;88.84;98957.80;1756294;80;20993;-46
2021/05/19 03:44:22;;;;;;;9.83;8.60;;;;;;;15.61;88.85;98960.67;1762668;79;21085;-47
2021/05/19 03:46:49;;;;;;;9.95;9.00;;;;;;;15.61;88.82;98953.96;1757081;80;20969;-45
2021/05/19 03:49:16;;;;;;;11.50;10.30;;;;;;;15.63;88.84;98957.84;1768532;80;21029;-46
2021/05/19 03:51:43;;;;;;;10.58;8.90;;;;;;;15.63;88.78;98949.78;1769728;79;22002;-50
2021/05/19 03:54:10;;;;;;;9.50;8.60;;;;;;;15.64;88.74;98953.64;1759252;79;21020;-48
2021/05/19 03:56:36;;;;;;;10.50;9.50;;;;;;;15.66;88.72;98952.14;1770522;79;21029;-48
2021/05/19 03:59:03;;;;;;;11.28;10.13;;;;;;;15.67;88.74;98955.16;1761280;80;21037;-52
2021/05/19 04:01:31;;;;;;;11.38;9.95;;;;;;;15.68;88.68;98946.95;1762288;80;21001;-46
2021/05/19 04:03:57;;;;;;;9.38;8.58;;;;;;;15.69;88.73;98957.19;1753623;80;21030;-48
2021/05/19 04:06:24;;;;;;;9.93;9.03;;;;;;;15.68;88.79;98950.98;1769371;80;21080;-53
2021/05/19 04:08:53;;;;;;;11.00;9.90;;;;;;;15.70;88.89;98953.05;1762743;80;20994;-45
2021/05/19 04:11:19;;;;;;;11.25;9.68;;;;;;;15.75;88.96;98960.64;1756920;80;20975;-46
2021/05/19 04:13:46;;;;;;;10.28;9.20;;;;;;;15.76;89.03;98959.12;1701984;82;21046;-51
2021/05/19 04:16:12;;;;;;;11.05;9.73;;;;;;;15.79;89.05;98956.11;1752016;79;21349;-44
2021/05/19 04:18:39;;;;;;;9.98;9.08;;;;;;;15.82;89.01;98969.72;1759854;80;21020;-46
2021/05/19 04:21:06;;;;;;;10.80;9.65;;;;;;;15.86;89.01;98971.61;1760495;79;21009;-47
2021/05/19 04:23:34;;;;;;;10.60;9.53;;;;;;;15.87;89.07;98964.70;1768356;80;20978;-49
2021/05/19 04:26:01;;;;;;;11.43;9.30;;;;;;;15.89;89.18;98955.99;1770198;80;20978;-53
2021/05/19 04:28:28;;;;;;;11.35;9.60;;;;;;;15.92;89.27;98953.48;1765276;80;21018;-44
2021/05/19 04:30:56;;;;;;;9.45;8.55;;;;;;;15.95;89.34;98954.50;1759227;79;21025;-41
2021/05/19 04:33:24;;;;;;;14.65;10.28;;;;;;;15.96;89.35;98957.55;1754304;80;21056;-46
2021/05/19 04:35:52;;;;;;;11.83;10.50;;;;;;;15.98;89.38;98958.23;1753243;79;21016;-47
2021/05/19 04:38:23;;;;;;;11.60;10.40;;;;;;;16.01;89.45;98960.09;1700939;83;21017;-48
2021/05/19 04:40:54;;;;;;;12.00;10.60;;;;;;;16.04;89.50;98960.27;1770884;80;21010;-49
2021/05/19 04:43:21;;;;;;;11.85;10.65;;;;;;;16.06;89.51;98959.61;1768797;80;21065;-45
2021/05/19 04:45:49;;;;;;;11.60;10.50;;;;;;;16.10;89.49;98966.84;1762127;79;21526;-46
2021/05/19 04:48:16;;;;;;;12.75;11.57;;;;;;;16.12;89.37;98962.98;1767463;80;21021;-47
2021/05/19 04:50:43;;;;;;;13.58;12.18;;;;;;;16.16;89.22;98964.86;1762752;80;21524;-42
2021/05/19 04:53:10;;;;;;;12.65;11.48;;;;;;;16.16;89.02;98955.45;1769543;79;21045;-44
2021/05/19 04:55:38;;;;;;;11.40;10.38;;;;;;;16.17;88.83;98957.13;1770674;79;21034;-44
2021/05/19 04:58:05;;;;;;;11.93;10.30;;;;;;;16.20;88.64;98954.97;1735661;81;21025;-42
2021/05/19 05:00:33;;;;;;;11.03;9.55;;;;;;;16.22;88.54;98955.63;1765452;79;21017;-43
2021/05/19 05:03:00;;;;;;;10.75;9.75;;;;;;;16.25;88.46;98953.62;1762197;80;21037;-43
2021/05/19 05:05:27;;;;;;;9.50;8.60;;;;;;;16.26;88.33;98955.33;1765613;79;21029;-44
2021/05/19 05:07:54;;;;;;;8.35;7.55;;;;;;;16.27;88.14;98957.00;1755679;80;21020;-44
2021/05/19 05:10:22;;;;;;;7.60;6.90;;;;;;;16.29;87.89;98960.38;1767143;80;21575;-44
2021/05/19 05:12:49;;;;;;;7.20;6.58;;;;;;;16.31;87.68;98959.20;1769402;80;21006;-44
2021/05/19 05:15:18;;;;;;;9.08;7.58;;;;;;;16.34;87.30;98964.76;1770144;80;21005;-43
2021/05/19 05:17:45;;;;;;;8.10;6.83;;;;;;;16.36;86.82;98965.44;1768777;80;21014;-45
2021/05/19 05:20:13;;;;;;;9.50;7.60;;;;;;;16.39;86.68;98961.91;1773200;80;21243;-45
2021/05/19 05:22:40;;;;;;;9.28;7.00;;;;;;;16.42;86.80;98963.43;1770449;80;21035;-48
2021/05/19 05:25:07;;;;;;;7.87;7.10;;;;;;;16.45;86.86;98963.09;1769621;79;21045;-51
2021/05/19 05:27:34;;;;;;;8.50;6.72;;;;;;;16.50;86.98;98970.68;1767214;80;21509;-42
2021/05/19 05:30:01;;;;;;;8.28;7.42;;;;;;;16.56;87.35;98969.53;1742834;80;20998;-41
2021/05/19 05:32:27;;;;;;;7.25;6.50;;;;;;;16.64;87.54;98972.74;1765916;79;21033;-41
2021/05/19 05:34:54;;;;;;;6.17;5.60;;;;;;;16.73;87.00;98972.24;1768491;79;21014;-42
2021/05/19 05:37:22;;;;;;;6.97;5.30;;;;;;;16.79;85.99;98967.08;1772545;79;21027;-45
2021/05/19 05:39:49;;;;;;;5.70;5.20;;;;;;;16.85;85.58;98964.22;1772327;80;21012;-45
2021/05/19 05:42:15;;;;;;;8.13;5.65;;;;;;;16.90;85.45;98973.16;1705162;83;21045;-49
2021/05/19 05:44:42;;;;;;;6.22;5.62;;;;;;;16.92;85.31;98970.63;1711070;82;21049;-49
2021/05/19 05:47:08;;;;;;;7.92;5.40;;;;;;;16.96;85.36;98967.09;1771318;79;21042;-47
2021/05/19 05:49:35;;;;;;;6.87;5.05;;;;;;;16.96;85.05;98972.47;1772519;79;21020;-46
2021/05/19 05:52:01;;;;;;;8.68;6.50;;;;;;;16.93;84.36;98965.57;1767890;80;21314;-47
2021/05/19 05:54:29;;;;;;;11.35;5.70;;;;;;;16.92;83.68;98965.76;1771636;79;21005;-47
2021/05/19 05:56:57;;;;;;;11.73;5.60;;;;;;;16.92;83.11;98968.45;1770928;80;21018;-50
2021/05/19 05:59:24;;;;;;;6.25;5.17;;;;;;;16.91;82.25;98965.41;1769618;79;21778;-41
2021/05/19 06:01:50;;;;;;;7.53;3.85;;;;;;;16.91;81.87;98963.58;1768552;80;20962;-47
2021/05/19 06:04:17;;;;;;;4.80;3.35;;;;;;;16.91;81.52;98959.54;1767699;80;21517;-43
2021/05/19 06:06:44;;;;;;;4.45;3.00;;;;;;;16.93;80.92;98962.88;1762897;79;20985;-44
2021/05/19 06:09:11;;;;;;;7.10;3.47;;;;;;;16.95;80.38;98957.34;1773009;80;21531;-43
2021/05/19 06:11:38;;;;;;;7.40;3.22;;;;;;;16.95;79.54;98961.38;1784875;79;21013;-46
2021/05/19 06:14:05;;;;;;;2.80;2.27;;;;;;;16.94;79.21;98955.16;1785434;79;21021;-44
2021/05/19 06:16:32;;;;;;;7.47;2.90;;;;;;;16.96;79.10;98965.74;1782494;79;21001;-45
2021/05/19 06:18:59;;;;;;;2.75;2.08;;;;;;;16.96;78.83;98974.69;1784835;79;20977;-45
2021/05/19 06:21:26;;;;;;;1.80;1.50;;;;;;;16.96;78.67;98976.03;1784382;79;21068;-49
2021/05/19 06:23:53;;;;;;;3.05;1.70;;;;;;;17.00;79.07;98985.44;1773007;79;21332;-44
2021/05/19 06:26:20;;;;;;;3.95;1.72;;;;;;;17.02;79.50;98993.36;1782992;79;20994;-47
2021/05/19 06:28:48;;;;;;;2.12;1.80;;;;;;;17.05;79.31;98994.37;1779264;79;21017;-45
2021/05/19 06:31:16;;;;;;;3.42;1.42;;;;;;;17.06;78.79;99004.15;1773259;79;21021;-44
2021/05/19 06:33:43;;;;;;;3.72;1.72;;;;;;;17.08;78.89;99002.11;1778681;79;21598;-48
2021/05/19 06:36:10;;;;;;;2.60;1.77;;;;;;;17.08;78.68;99004.80;1779970;79;21530;-46
2021/05/19 06:38:36;;;;;;;3.35;1.40;;;;;;;17.07;77.93;99010.70;1709298;82;21009;-47
2021/05/19 06:41:03;;;;;;;2.83;1.20;;;;;;;17.07;77.31;99012.05;1743706;81;21026;-43
2021/05/19 06:43:31;;;;;;;2.12;1.40;;;;;;;17.08;77.01;99011.53;1742740;81;21080;-45
2021/05/19 06:45:58;;;;;;;1.80;1.20;;;;;;;17.08;76.61;99010.19;1714001;82;21376;-47
2021/05/19 06:48:25;;;;;;;2.50;1.05;;;;;;;17.07;75.99;99018.77;1713230;83;21048;-50
2021/05/19 06:50:51;;;;;;;2.83;1.22;;;;;;;17.09;75.73;99015.92;1714777;82;21003;-50
2021/05/19 06:53:18;;;;;;;1.82;1.50;;;;;;;17.10;75.46;99018.95;1717562;82;21018;-47
2021/05/19 06:55:52;;;;;;;2.27;1.25;;;;;;;17.15;75.65;99021.14;1732175;81;21528;-47
2021/05/19 06:58:18;;;;;;;1.92;1.40;;;;;;;17.19;75.52;99019.81;1717715;82;20997;-52
2021/05/19 07:00:45;;;;;;;2.00;1.22;;;;;;;17.24;75.01;99024.19;1709429;82;21021;-45
2021/05/19 07:03:12;;;;;;;1.25;0.82;;;;;;;17.27;74.94;99033.28;1714157;82;21550;-48
2021/05/19 07:05:39;;;;;;;1.12;0.95;;;;;;;17.32;75.34;99032.78;1708733;83;21026;-44
2021/05/19 07:08:06;;;;;;;1.00;0.90;;;;;;;17.36;74.89;99036.32;1709139;82;21027;-46
2021/05/19 07:10:33;;;;;;;2.30;1.40;;;;;;;17.38;74.21;99034.28;1712296;81;21016;-47
2021/05/19 07:13:03;;;;;;;1.02;0.90;;;;;;;17.42;73.54;99033.45;1713043;83;21018;-44
2021/05/19 07:15:33;;;;;;;1.72;1.40;;;;;;;17.43;73.51;99035.95;1715113;83;21045;-46
2021/05/19 07:18:07;;;;;;;1.45;1.07;;;;;;;17.44;73.18;99032.27;1717880;83;21009;-48
2021/05/19 07:20:34;;;;;;;1.82;1.25;;;;;;;17.46;73.26;99038.82;1719165;81;21057;-48
2021/05/19 07:23:00;;;;;;;0.90;0.85;;;;;;;17.50;73.17;99037.48;1766783;80;21799;-51
2021/05/19 07:25:27;;;;;;;1.00;0.90;;;;;;;17.52;73.03;99039.00;1766907;79;21002;-48
2021/05/19 07:27:53;;;;;;;1.00;0.90;;;;;;;17.57;72.83;99036.31;1767186;80;20998;-49
2021/05/19 07:30:22;;;;;;;1.75;1.40;;;;;;;17.61;72.19;99037.64;1763061;79;21013;-50
2021/05/19 07:32:48;;;;;;;1.22;0.85;;;;;;;17.65;71.13;99035.79;1762767;80;21013;-46
2021/05/19 07:35:15;;;;;;;0.90;0.80;;;;;;;17.68;70.98;99037.30;1768437;79;20958;-45
2021/05/19 07:37:42;;;;;;;2.00;1.07;;;;;;;17.70;71.06;99040.67;1768396;80;21049;-41
2021/05/19 07:40:11;;;;;;;2.40;1.20;;;;;;;17.73;70.35;99034.94;1767586;79;20973;-45
2021/05/19 07:42:39;;;;;;;4.12;1.30;;;;;;;17.72;69.51;99038.66;1756840;80;21069;-44
2021/05/19 07:45:07;;;;;;;4.55;1.40;;;;;;;17.74;69.70;99036.64;1729967;81;21818;-42
2021/05/19 07:47:34;;;;;;;3.27;1.65;;;;;;;17.78;70.58;99044.70;1763454;79;21010;-46
2021/05/19 07:50:00;;;;;;;1.42;0.70;;;;;;;17.83;71.18;99045.58;1761514;79;20982;-48
2021/05/19 07:52:27;;;;;;;2.37;0.80;;;;;;;17.89;70.29;99039.48;1706892;82;21869;-46
2021/05/19 07:54:54;;;;;;;3.22;1.07;;;;;;;17.93;69.35;99038.98;1766861;80;20977;-51
2021/05/19 07:57:28;;;;;;;3.40;1.05;;;;;;;17.99;69.28;99044.70;1766755;79;20985;-46
2021/05/19 08:00:14;;;;;;;4.35;3.35;;;;;;;18.03;68.62;99038.80;1767189;79;21524;-47
2021/05/19 08:02:43;;;;;;;1.40;1.17;;;;;;;18.08;68.52;99039.63;1701102;83;21010;-45
2021/05/19 08:05:11;;;;;;;1.25;0.80;;;;;;;18.10;68.08;99042.48;1765015;79;21515;-47
2021/05/19 08:07:37;;;;;;;3.75;1.47;;;;;;;18.11;67.66;99033.89;1771316;80;21046;-46
2021/05/19 08:10:05;;;;;;;0.75;0.68;;;;;;;18.13;68.33;99044.84;1705750;82;20986;-44
2021/05/19 08:12:32;;;;;;;1.05;1.00;;;;;;;18.13;68.16;99042.14;1760134;79;21108;-45
2021/05/19 08:14:59;;;;;;;1.15;0.90;;;;;;;18.14;67.88;99038.45;1763246;79;21558;-45
2021/05/19 08:17:26;;;;;;;12.73;9.40;;;;;;;18.16;67.81;99044.48;1761659;80;21059;-49
2021/05/19 08:19:53;;;;;;;4.92;3.85;;;;;;;18.20;68.74;99047.70;1701622;82;20997;-48
2021/05/19 08:22:22;;;;;;;1.95;1.72;;;;;;;18.21;68.55;99051.23;1762405;80;21044;-50
2021/05/19 08:24:51;;;;;;;1.12;0.57;;;;;;;18.22;68.02;99052.41;1700171;82;21029;-48
2021/05/19 08:27:18;;;;;;;0.60;0.60;;;;;;;18.22;67.12;99051.55;1753169;80;21548;-48
2021/05/19 08:29:46;;;;;;;0.60;0.53;;;;;;;18.24;67.18;99059.80;1763422;79;20986;-48
2021/05/19 08:32:12;;;;;;;0.80;0.60;;;;;;;18.22;66.32;99049.72;1764307;80;21017;-50
2021/05/19 08:34:40;;;;;;;2.72;0.88;;;;;;;18.22;65.71;99056.94;1766514;79;21586;-48
2021/05/19 08:37:07;;;;;;;1.10;0.85;;;;;;;18.20;66.35;99055.78;1769943;80;21453;-48
2021/05/19 08:39:34;;;;;;;1.35;0.90;;;;;;;18.21;67.16;99049.36;1700774;82;20998;-49
2021/05/19 08:42:01;;;;;;;0.93;0.55;;;;;;;18.26;68.07;99052.38;1755009;79;21019;-46
2021/05/19 08:44:27;;;;;;;1.47;1.02;;;;;;;18.30;67.81;99051.55;1761979;79;21599;-43
2021/05/19 08:46:57;;;;;;;1.70;0.95;;;;;;;18.35;67.71;99058.09;1767376;80;21040;-50
2021/05/19 08:49:25;;;;;;;3.55;1.45;;;;;;;18.40;67.28;99057.58;1766198;79;21025;-49
2021/05/19 08:51:53;;;;;;;1.00;0.62;;;;;;;18.45;66.72;99057.90;1763640;79;20982;-47
2021/05/19 08:54:22;;;;;;;3.85;2.50;;;;;;;18.49;67.01;99055.67;1767259;80;20971;-55
2021/05/19 08:56:49;;;;;;;3.95;2.35;;;;;;;18.54;67.07;99058.69;1767443;79;20969;-52
2021/05/19 08:59:53;;;;;;;2.72;1.57;;;;;;;18.58;66.90;99061.39;1764863;80;21574;-44
2021/05/19 09:03:05;;;;;;;1.85;0.62;;;;;;;18.62;67.35;99060.00;1764764;79;21062;-52
2021/05/19 09:05:33;;;;;;;0.95;0.60;;;;;;;18.68;66.39;99067.41;1672897;83;21721;-46
2021/05/19 09:08:08;;;;;;;0.98;0.65;;;;;;;18.72;66.02;99064.70;1674505;84;21085;-44
2021/05/19 09:10:40;;;;;;;1.22;0.75;;;;;;;18.75;64.80;99066.21;1672590;84;21007;-46
2021/05/19 09:13:08;;;;;;;;;;;;;;;18.78;64.83;99065.37;1676602;84;21057;-43
2021/05/19 09:15:48;;;;;;;1.62;0.70;;;;;;;18.80;64.80;99066.05;1675719;83;20193;-44
2021/05/19 09:18:15;;;;;;;0.78;0.45;;;;;;;18.81;63.95;99061.47;1672172;84;20985;-47
2021/05/19 09:20:45;;;;;;;1.62;0.50;;;;;;;18.81;63.18;99056.91;1673401;83;21065;-44
2021/05/19 09:23:17;;;;;;;3.67;0.68;;;;;;;18.84;63.14;99052.18;1676321;84;21045;-45
2021/05/19 09:25:41;;;;;;;1.37;0.62;;;;;;;18.86;63.61;99048.28;1678270;83;21037;-44
2021/05/19 09:28:09;;;;;;;1.95;0.60;;;;;;;18.91;64.69;99049.11;1677423;84;21030;-43
2021/05/19 09:30:45;;;;;;;0.78;0.55;;;;;;;18.95;64.75;99049.06;1673314;83;21237;-43
2021/05/19 09:33:24;;;;;;;0.80;0.47;;;;;;;18.97;64.29;99049.73;1676499;84;21030;-44
2021/05/19 09:36:15;;;;;;;0.65;0.50;;;;;;;19.00;63.72;99045.34;1668067;84;21034;-46
2021/05/19 09:38:46;;;;;;;1.27;0.57;;;;;;;19.04;64.01;99043.95;1674678;83;21006;-44
2021/05/19 09:41:20;;;;;;;1.20;0.60;;;;;;;19.09;64.62;99048.83;1673229;84;21052;-45
2021/05/19 09:43:51;;;;;;;4.50;4.00;;;;;;;19.13;64.34;99039.36;1771751;79;21041;-45
2021/05/19 09:49:21;;;;;;;0.55;0.40;;;;;;;19.18;63.04;99037.79;1771723;79;21027;-44
2021/05/19 09:51:53;;;;;;;0.40;0.40;;;;;;;19.22;63.53;99040.44;1769749;79;21013;-43
2021/05/19 09:54:31;;;;;;;0.57;0.30;;;;;;;19.23;62.23;99040.80;1769223;79;21025;-46
2021/05/19 09:57:03;;;;;;;1.05;0.42;;;;;;;19.24;62.67;99042.46;1772071;79;21002;-44
2021/05/19 09:59:31;;;;;;;0.88;0.55;;;;;;;19.26;61.61;99040.94;1769550;79;21022;-47
2021/05/19 10:02:00;;;;;;;1.32;0.50;;;;;;;19.27;61.85;99041.27;1772426;79;20977;-47
2021/05/19 10:04:38;;;;;;;2.02;0.33;;;;;;;19.31;61.49;99040.41;1769800;79;20977;-54
2021/05/19 10:07:03;;;;;;;1.62;0.55;;;;;;;19.34;60.55;99041.39;1768091;79;21045;-54
2021/05/19 10:09:32;;;;;;;1.47;0.93;;;;;;;19.40;61.95;99041.52;1767164;79;21036;-45
2021/05/19 10:12:02;;;;;;;0.85;0.40;;;;;;;19.46;62.36;99045.35;1770117;79;21574;-44
2021/05/19 10:14:30;;;;;;;1.60;0.50;;;;;;;19.51;61.83;99043.46;1771991;79;21376;-45
2021/05/19 10:17:08;;;;;;;0.37;0.37;;;;;;;19.52;61.22;99045.96;1766671;80;21037;-47
2021/05/19 10:19:41;;;;;;;1.22;0.70;;;;;;;19.54;61.00;99046.63;1766672;79;21582;-48
2021/05/19 10:22:09;;;;;;;1.17;0.55;;;;;;;19.57;61.60;99044.91;1758204;80;20998;-45
2021/05/19 10:25:02;;;;;;;0.45;0.35;;;;;;;19.57;60.25;99047.61;1768447;80;20982;-55
2021/05/19 10:27:23;;;;;;;3.00;0.57;;;;;;;19.58;60.09;99054.72;1764357;80;21006;-50
2021/05/19 10:29:56;;;;;;;0.40;0.30;;;;;;;19.60;60.97;99055.34;1762617;79;21046;-50
2021/05/19 10:32:30;;;;;;;0.72;0.55;;;;;;;19.61;61.06;99057.05;1768757;80;21615;-48
2021/05/19 10:34:58;;;;;;;2.27;0.53;;;;;;;19.64;60.68;99062.08;1754866;80;21639;-50
2021/05/19 10:37:36;;;;;;;4.12;2.08;;;;;;;19.67;60.69;99058.20;1765581;80;21019;-50
2021/05/19 10:40:18;;;;;;;1.22;0.95;;;;;;;19.71;60.85;99064.94;1763927;79;21032;-53
2021/05/19 10:42:58;;;;;;;5.05;3.12;;;;;;;19.73;61.03;99068.31;1756925;80;21018;-53
2021/05/19 10:45:25;;;;;;;5.70;1.57;;;;;;;19.74;60.16;99065.92;1752398;79;20997;-54
2021/05/19 10:47:53;;;;;;;1.35;0.80;;;;;;;19.75;59.67;99064.05;1756620;80;21583;-48
2021/05/19 10:50:37;;;;;;;0.50;0.50;;;;;;;19.76;58.91;99069.81;1760911;79;21454;-43
2021/05/19 10:58:52;;;;;;;0.60;0.42;;;;;;;19.77;59.54;99065.55;1732326;81;21039;-42
2021/05/19 11:01:40;;;;;;;1.42;0.53;;;;;;;19.80;59.35;99065.70;1725465;81;21602;-44
2021/05/19 11:04:28;;;;;;;1.80;0.55;;;;;;;19.80;59.58;99067.05;1678605;83;21032;-47
2021/05/19 11:07:04;;;;;;;0.90;0.40;;;;;;;19.79;61.20;99061.32;1716634;82;21028;-49
2021/05/19 11:09:33;;;;;;;1.45;0.68;;;;;;;19.80;61.65;99062.47;1711405;82;21041;-42
2021/05/19 11:12:26;;;;;;;0.88;0.68;;;;;;;19.82;62.11;99067.19;1712086;82;21131;-48
2021/05/19 11:15:04;;;;;;;6.42;1.65;;;;;;;19.84;62.61;99071.08;1710396;81;21104;-52
2021/05/19 11:20:01;;;;;;;0.42;0.37;;;;;;;19.85;62.03;99066.82;1723974;81;21028;-43
2021/05/19 11:22:27;;;;;;;0.57;0.50;;;;;;;19.87;61.93;99064.78;1675946;82;21662;-45
2021/05/19 11:24:58;;;;;;;1.35;0.40;;;;;;;19.89;61.54;99067.31;1725732;81;21564;-50
2021/05/19 11:27:28;;;;;;;1.22;0.50;;;;;;;19.89;61.03;99069.50;1731100;81;20970;-42
2021/05/19 11:29:55;;;;;;;2.15;1.50;;;;;;;19.90;61.73;99068.98;1727857;81;21013;-45
2021/05/19 11:32:28;;;;;;;0.88;0.75;;;;;;;19.94;61.57;99073.53;1719090;81;21076;-44
2021/05/19 11:35:18;;;;;;;1.00;0.70;;;;;;;19.97;61.95;99073.16;1717639;81;21045;-42
2021/05/19 11:38:04;;;;;;;2.30;1.20;;;;;;;20.00;62.30;99072.26;1720643;81;21017;-46
2021/05/19 11:40:49;;;;;;;1.12;0.82;;;;;;;20.04;62.64;99072.23;1733826;80;21501;-44
2021/05/19 11:43:18;;;;;;;4.03;2.92;;;;;;;20.07;62.33;99069.14;1775350;79;21539;-50
2021/05/19 11:45:52;;;;;;;1.42;1.05;;;;;;;20.09;61.34;99067.10;1779979;79;21040;-45
2021/05/19 11:48:24;;;;;;;0.93;0.73;;;;;;;20.09;61.48;99059.51;1775564;79;21001;-44
2021/05/19 11:50:52;;;;;;;3.62;0.60;;;;;;;20.08;62.03;99064.57;1779911;79;21030;-44
2021/05/19 11:53:19;;;;;;;2.25;1.02;;;;;;;20.07;61.83;99069.14;1718451;83;21056;-45
2021/05/19 11:55:49;;;;;;;3.40;1.12;;;;;;;20.06;61.94;99062.07;1745301;81;21014;-45